Terminal Aerodrome Forecast
Issued by NWS Tuscon, AZ

Home | Current Version | Previous Version | Text Only | Print | Product List | Glossary On
Versions: 1 2 3 4 5 6 7 8 9 10 11 12 13 14 15
000
FTUS45 KTWC 012300
TAFTUS
TAF
KTUS 012334Z 0200/0224 27014G22KT P6SM FEW100 SCT250
     FM020200 27007KT P6SM SKC
     FM020900 15007KT P6SM SCT250
     FM021700 23012G20KT P6SM BKN250
     FM022100 27015G25KT P6SM BKN250=

USA.gov is the U.S. government's official web portal to all federal, state and local government web resources and services.